createdAt,value
2017-08-29T00:00:45.329Z,21.78
2017-08-29T00:03:12.833Z,21.77
2017-08-29T00:05:40.310Z,21.76
2017-08-29T00:08:07.788Z,21.83
2017-08-29T00:10:35.282Z,21.69
2017-08-29T00:13:02.789Z,21.55
2017-08-29T00:15:30.274Z,21.43
2017-08-29T00:17:57.756Z,21.42
2017-08-29T00:20:25.259Z,21.43
2017-08-29T00:22:52.747Z,21.48
2017-08-29T00:25:20.260Z,21.42
2017-08-29T00:27:47.733Z,21.42
2017-08-29T00:30:15.226Z,21.29
2017-08-29T00:32:42.710Z,21.33
2017-08-29T00:35:10.210Z,21.36
2017-08-29T00:37:37.692Z,21.25
2017-08-29T00:40:05.581Z,21.26
2017-08-29T00:42:33.084Z,21.32
2017-08-29T00:45:00.574Z,21.32
2017-08-29T00:47:28.056Z,21.37
2017-08-29T00:49:55.521Z,21.25
2017-08-29T00:52:22.997Z,21.24
2017-08-29T00:54:50.475Z,21.22
2017-08-29T00:57:18.325Z,21.15
2017-08-29T00:59:45.781Z,21.18
2017-08-29T01:02:13.237Z,21.11
2017-08-29T01:04:40.739Z,21.03
2017-08-29T01:07:08.625Z,21.00
2017-08-29T01:09:36.138Z,20.89
2017-08-29T01:12:04.222Z,20.93
2017-08-29T01:14:31.712Z,20.86
2017-08-29T01:16:59.187Z,20.90
2017-08-29T01:19:26.677Z,20.91
2017-08-29T01:21:55.190Z,20.86
2017-08-29T01:24:22.676Z,20.84
2017-08-29T01:26:50.149Z,20.90
2017-08-29T01:29:17.648Z,20.77
2017-08-29T01:31:45.121Z,20.87
2017-08-29T01:34:12.609Z,20.74
2017-08-29T01:36:40.110Z,20.71
2017-08-29T01:39:07.595Z,20.57
2017-08-29T01:41:35.068Z,20.49
2017-08-29T01:44:02.529Z,20.44
2017-08-29T01:46:30.039Z,20.51
2017-08-29T01:48:57.541Z,20.47
2017-08-29T01:51:25.007Z,20.38
2017-08-29T01:53:52.496Z,20.47
2017-08-29T01:56:19.988Z,20.31
2017-08-29T01:58:47.468Z,20.27
2017-08-29T02:01:14.934Z,20.21
2017-08-29T02:03:42.433Z,20.05
2017-08-29T02:06:09.920Z,20.01
2017-08-29T02:08:37.411Z,19.96
2017-08-29T02:11:05.444Z,20.08
2017-08-29T02:13:32.910Z,20.09
2017-08-29T02:16:00.398Z,20.11
2017-08-29T02:18:27.866Z,20.04
2017-08-29T02:20:55.384Z,20.03
2017-08-29T02:23:23.675Z,19.94
2017-08-29T02:25:51.329Z,20.06
2017-08-29T02:28:18.808Z,20.10
2017-08-29T02:30:46.319Z,20.08
2017-08-29T02:33:13.815Z,20.04
2017-08-29T02:35:41.756Z,19.88
2017-08-29T02:38:09.252Z,19.94
2017-08-29T02:40:36.713Z,19.94
2017-08-29T02:43:04.195Z,19.92
2017-08-29T02:45:31.689Z,19.85
2017-08-29T02:47:59.176Z,19.83
2017-08-29T02:50:26.678Z,19.80
2017-08-29T02:52:54.253Z,19.79
2017-08-29T02:55:21.745Z,19.76
2017-08-29T02:57:49.241Z,19.78
2017-08-29T03:00:16.731Z,19.55
2017-08-29T03:02:44.224Z,19.73
2017-08-29T03:05:11.707Z,19.68
2017-08-29T03:07:39.207Z,19.62
2017-08-29T03:10:06.690Z,19.53
2017-08-29T03:12:34.169Z,19.39
2017-08-29T03:15:01.690Z,19.51
2017-08-29T03:17:29.175Z,19.53
2017-08-29T03:19:56.682Z,19.51
2017-08-29T03:22:24.168Z,19.52
2017-08-29T03:24:51.664Z,19.55
2017-08-29T03:27:19.129Z,19.68
2017-08-29T03:29:46.653Z,19.64
2017-08-29T03:32:14.110Z,19.65
2017-08-29T03:34:41.576Z,19.70
2017-08-29T03:37:09.072Z,19.74
2017-08-29T03:39:36.558Z,19.63
2017-08-29T03:42:05.009Z,19.65
2017-08-29T03:44:32.504Z,19.44
2017-08-29T03:47:00.076Z,19.44
2017-08-29T03:49:27.549Z,19.40
2017-08-29T03:51:55.061Z,19.32
2017-08-29T03:54:22.538Z,19.35
2017-08-29T03:56:50.025Z,19.36
2017-08-29T03:59:17.504Z,19.20
2017-08-29T04:01:44.971Z,19.15
2017-08-29T04:04:12.463Z,19.09
2017-08-29T04:06:39.940Z,19.10
2017-08-29T04:09:07.435Z,19.21
2017-08-29T04:11:34.938Z,19.28
2017-08-29T04:14:02.455Z,19.24
2017-08-29T04:16:29.905Z,19.31
2017-08-29T04:18:57.431Z,19.32
2017-08-29T04:21:24.920Z,19.26
2017-08-29T04:23:52.427Z,19.25
2017-08-29T04:26:19.923Z,19.24
2017-08-29T04:28:47.398Z,19.24
2017-08-29T04:31:14.885Z,19.17
2017-08-29T04:33:42.341Z,19.02
2017-08-29T04:36:09.835Z,19.02
2017-08-29T04:38:37.302Z,18.96
2017-08-29T04:41:04.810Z,18.90
2017-08-29T04:43:32.285Z,18.84
2017-08-29T04:45:59.777Z,18.87
2017-08-29T04:48:27.259Z,18.83
2017-08-29T04:50:54.750Z,18.66
2017-08-29T04:53:23.143Z,18.67
2017-08-29T04:55:50.620Z,18.68
2017-08-29T04:58:18.128Z,18.76
2017-08-29T05:00:45.589Z,18.69
2017-08-29T05:03:13.098Z,18.75
2017-08-29T05:05:40.575Z,18.74
2017-08-29T05:08:08.177Z,18.81
2017-08-29T05:10:35.646Z,18.70
2017-08-29T05:13:03.145Z,18.68
2017-08-29T05:15:30.682Z,18.61
2017-08-29T05:17:58.150Z,18.76
2017-08-29T05:20:25.661Z,18.76
2017-08-29T05:22:53.159Z,18.67
2017-08-29T05:25:20.670Z,18.70
2017-08-29T05:27:48.702Z,18.73
2017-08-29T05:30:17.384Z,18.76
2017-08-29T05:32:45.116Z,18.79
2017-08-29T05:35:12.750Z,18.81
2017-08-29T05:37:40.267Z,18.76
2017-08-29T05:40:07.786Z,18.78
2017-08-29T05:42:35.298Z,18.86
2017-08-29T05:45:02.889Z,18.91
2017-08-29T05:47:30.520Z,19.08
2017-08-29T05:49:58.010Z,19.21
2017-08-29T05:52:25.520Z,19.24
2017-08-29T05:54:53.038Z,19.15
2017-08-29T05:57:20.544Z,18.98
2017-08-29T05:59:48.012Z,19.14
2017-08-29T06:02:15.501Z,19.37
2017-08-29T06:04:43.007Z,19.18
2017-08-29T06:07:10.626Z,19.17
2017-08-29T06:09:38.128Z,19.20
2017-08-29T06:12:06.145Z,19.28
2017-08-29T06:14:33.686Z,19.32
2017-08-29T06:17:01.294Z,19.30
2017-08-29T06:19:28.838Z,19.40
2017-08-29T06:21:56.322Z,19.35
2017-08-29T06:24:23.843Z,19.61
2017-08-29T06:26:51.320Z,19.57
2017-08-29T06:29:18.843Z,19.63
2017-08-29T06:31:46.376Z,19.75
2017-08-29T06:34:13.837Z,19.72
2017-08-29T06:36:41.342Z,19.85
2017-08-29T06:39:08.831Z,19.90
2017-08-29T06:41:36.339Z,19.99
2017-08-29T06:44:03.890Z,20.08
2017-08-29T06:46:31.425Z,20.21
2017-08-29T06:48:58.920Z,20.23
2017-08-29T06:51:26.405Z,20.26
2017-08-29T06:53:54.180Z,20.26
2017-08-29T06:56:21.658Z,20.44
2017-08-29T06:58:49.145Z,20.63
2017-08-29T07:01:16.615Z,20.78
2017-08-29T07:03:44.130Z,20.77
2017-08-29T07:06:11.595Z,20.89
2017-08-29T07:08:39.085Z,21.01
2017-08-29T07:11:06.563Z,21.08
2017-08-29T07:13:34.064Z,21.23
2017-08-29T07:16:01.560Z,21.39
2017-08-29T07:18:29.075Z,21.50
2017-08-29T07:20:56.565Z,21.63
2017-08-29T07:23:24.066Z,21.70
2017-08-29T07:25:51.585Z,21.77
2017-08-29T07:28:19.079Z,21.85
2017-08-29T07:30:46.573Z,21.97
2017-08-29T07:33:14.042Z,22.19
2017-08-29T07:35:41.537Z,22.25
2017-08-29T07:38:09.030Z,22.37
2017-08-29T07:40:36.538Z,22.53
2017-08-29T07:43:04.859Z,22.67
2017-08-29T07:45:32.367Z,22.75
2017-08-29T07:47:59.914Z,22.78
2017-08-29T07:50:27.420Z,22.90
2017-08-29T07:52:54.922Z,23.06
2017-08-29T07:55:22.398Z,23.23
2017-08-29T07:57:49.886Z,23.33
2017-08-29T08:00:17.347Z,23.53
2017-08-29T08:02:44.838Z,23.70
2017-08-29T08:05:12.322Z,23.82
2017-08-29T08:07:39.839Z,23.98
2017-08-29T08:10:07.309Z,24.05
2017-08-29T08:12:34.799Z,24.21
2017-08-29T08:15:02.278Z,24.24
2017-08-29T08:17:29.809Z,24.26
2017-08-29T08:19:57.362Z,24.44
2017-08-29T08:22:24.850Z,24.58
2017-08-29T08:24:52.349Z,24.70
2017-08-29T08:27:19.853Z,24.83
2017-08-29T08:29:47.367Z,24.96
2017-08-29T08:32:14.858Z,24.97
2017-08-29T08:34:42.357Z,25.03
2017-08-29T08:37:09.827Z,25.24
2017-08-29T08:39:37.439Z,25.28
2017-08-29T08:42:10.038Z,25.36
2017-08-29T08:44:37.547Z,25.51
2017-08-29T08:47:05.033Z,25.62
2017-08-29T08:49:32.505Z,25.67
2017-08-29T08:52:00.072Z,25.80
2017-08-29T08:54:27.600Z,25.89
2017-08-29T08:56:55.099Z,26.01
2017-08-29T08:59:22.581Z,26.11
2017-08-29T09:01:50.175Z,26.21
2017-08-29T09:04:17.633Z,26.29
2017-08-29T09:06:45.135Z,26.35
2017-08-29T09:09:12.656Z,26.47
2017-08-29T09:11:40.126Z,26.55
2017-08-29T09:14:07.641Z,26.65
2017-08-29T09:16:35.130Z,26.72
2017-08-29T09:19:02.660Z,26.85
2017-08-29T09:21:30.189Z,26.93
2017-08-29T09:23:57.694Z,27.02
2017-08-29T09:26:25.162Z,27.15
2017-08-29T09:28:52.763Z,27.20
2017-08-29T09:31:20.624Z,27.36
2017-08-29T09:33:48.107Z,27.39
2017-08-29T09:36:15.594Z,27.47
2017-08-29T09:38:43.067Z,27.49
2017-08-29T09:41:10.565Z,27.64
2017-08-29T09:43:38.028Z,27.68
2017-08-29T09:46:05.525Z,27.77
2017-08-29T09:48:33.173Z,27.88
2017-08-29T09:51:00.661Z,27.96
2017-08-29T09:53:28.169Z,27.99
2017-08-29T09:55:55.829Z,28.15
2017-08-29T09:58:23.340Z,28.14
2017-08-29T10:00:51.766Z,28.24
2017-08-29T10:03:19.293Z,28.27
2017-08-29T10:05:46.835Z,28.49
2017-08-29T10:08:14.356Z,28.56
2017-08-29T10:10:41.822Z,28.71
2017-08-29T10:13:09.361Z,28.76
2017-08-29T10:15:36.886Z,28.74
2017-08-29T10:18:04.734Z,28.73
2017-08-29T10:20:32.406Z,28.77
2017-08-29T10:22:59.921Z,28.94
2017-08-29T10:25:27.386Z,28.95
2017-08-29T10:27:54.897Z,29.04
2017-08-29T10:30:22.474Z,29.05
2017-08-29T10:32:50.021Z,29.20
2017-08-29T10:35:17.502Z,29.04
2017-08-29T10:37:45.050Z,29.44
2017-08-29T10:40:12.547Z,29.59
2017-08-29T10:42:40.045Z,29.71
2017-08-29T10:45:07.557Z,29.74
2017-08-29T10:47:35.033Z,29.75
2017-08-29T10:50:02.540Z,29.66
2017-08-29T10:52:30.047Z,29.55
2017-08-29T10:54:57.528Z,29.62
2017-08-29T10:57:24.999Z,29.88
2017-08-29T10:59:52.506Z,29.98
2017-08-29T11:02:20.012Z,30.18
2017-08-29T11:04:47.523Z,30.28
2017-08-29T11:07:15.006Z,30.44
2017-08-29T11:09:42.492Z,30.45
2017-08-29T11:12:09.990Z,30.55
2017-08-29T11:14:37.529Z,30.65
2017-08-29T11:17:05.529Z,30.62
2017-08-29T11:19:33.064Z,30.64
2017-08-29T11:22:00.557Z,30.78
2017-08-29T11:24:28.068Z,30.94
2017-08-29T11:26:55.577Z,31.07
2017-08-29T11:29:23.080Z,30.80
2017-08-29T11:31:50.569Z,31.23
2017-08-29T11:34:18.059Z,31.25
2017-08-29T11:36:45.646Z,31.16
2017-08-29T11:39:13.095Z,30.89
2017-08-29T11:41:40.571Z,30.86
2017-08-29T11:44:08.716Z,31.12
2017-08-29T11:46:36.720Z,31.27
2017-08-29T11:49:04.219Z,31.34
2017-08-29T11:51:31.761Z,31.55
2017-08-29T11:53:59.268Z,31.49
2017-08-29T11:56:26.763Z,31.59
2017-08-29T11:58:54.267Z,30.91
2017-08-29T12:01:21.734Z,30.90
2017-08-29T12:03:49.235Z,31.24
2017-08-29T12:06:16.792Z,31.63
2017-08-29T12:08:45.254Z,31.85
2017-08-29T12:11:12.746Z,31.94
2017-08-29T12:13:40.271Z,31.69
2017-08-29T12:16:08.433Z,31.90
2017-08-29T12:18:35.939Z,31.98
2017-08-29T12:21:03.435Z,32.08
2017-08-29T12:23:30.903Z,32.21
2017-08-29T12:25:58.399Z,32.41
2017-08-29T12:28:25.872Z,32.66
2017-08-29T12:30:53.364Z,32.82
2017-08-29T12:33:20.866Z,32.86
2017-08-29T12:35:48.331Z,33.02
2017-08-29T12:38:15.819Z,33.00
2017-08-29T12:40:43.284Z,32.88
2017-08-29T12:43:10.984Z,33.07
2017-08-29T12:45:38.451Z,33.08
2017-08-29T12:48:06.584Z,33.17
2017-08-29T12:50:34.070Z,33.27
2017-08-29T12:53:02.336Z,33.28
2017-08-29T12:55:29.855Z,33.35
2017-08-29T12:57:57.312Z,33.23
2017-08-29T13:00:24.818Z,33.11
2017-08-29T13:02:52.324Z,33.01
2017-08-29T13:05:20.640Z,32.96
2017-08-29T13:07:48.256Z,33.13
2017-08-29T13:10:15.756Z,33.37
2017-08-29T13:12:43.296Z,33.17
2017-08-29T13:15:10.965Z,33.08
2017-08-29T13:17:38.445Z,33.19
2017-08-29T13:20:05.964Z,33.25
2017-08-29T13:22:33.469Z,33.47
2017-08-29T13:25:01.036Z,33.65
2017-08-29T13:27:28.561Z,34.14
2017-08-29T13:29:56.646Z,34.46
2017-08-29T13:32:24.167Z,34.52
2017-08-29T13:34:51.667Z,34.62
2017-08-29T13:37:19.175Z,34.97
2017-08-29T13:39:46.647Z,34.87
2017-08-29T13:42:14.134Z,35.14
2017-08-29T13:44:41.616Z,35.25
2017-08-29T13:47:09.111Z,35.25
2017-08-29T13:49:36.630Z,35.31
2017-08-29T13:52:04.085Z,35.67
2017-08-29T13:54:31.622Z,35.86
2017-08-29T13:56:59.940Z,35.79
2017-08-29T13:59:27.470Z,35.72
2017-08-29T14:01:55.668Z,35.71
2017-08-29T14:04:23.152Z,35.58
2017-08-29T14:06:50.642Z,35.81
2017-08-29T14:09:18.142Z,35.64
2017-08-29T14:11:45.613Z,35.66
2017-08-29T14:14:13.161Z,35.83
2017-08-29T14:16:40.662Z,35.79
2017-08-29T14:19:08.109Z,35.56
2017-08-29T14:21:35.624Z,36.12
2017-08-29T14:24:03.838Z,36.27
2017-08-29T14:26:31.360Z,36.45
2017-08-29T14:28:58.864Z,36.50
2017-08-29T14:31:28.341Z,36.68
2017-08-29T14:33:55.798Z,37.00
2017-08-29T14:36:23.702Z,37.22
2017-08-29T14:38:51.281Z,37.30
2017-08-29T14:41:18.801Z,37.44
2017-08-29T14:43:46.292Z,37.22
2017-08-29T14:46:13.825Z,37.38
2017-08-29T14:48:53.049Z,37.58
2017-08-29T14:51:20.533Z,37.72
2017-08-29T14:53:48.027Z,37.70
2017-08-29T14:56:15.491Z,37.76
2017-08-29T14:58:42.945Z,37.95
2017-08-29T15:01:10.440Z,37.78
2017-08-29T15:03:37.942Z,37.95
2017-08-29T15:06:05.441Z,37.97
2017-08-29T15:08:32.935Z,37.97
2017-08-29T15:11:00.506Z,38.33
2017-08-29T15:13:27.986Z,38.18
2017-08-29T15:15:55.469Z,37.90
2017-08-29T15:18:22.989Z,38.14
2017-08-29T15:20:50.437Z,37.95
2017-08-29T15:23:17.934Z,37.91
2017-08-29T15:25:45.405Z,37.76
2017-08-29T15:28:12.910Z,38.26
2017-08-29T15:30:40.386Z,38.27
2017-08-29T15:33:07.888Z,38.30
2017-08-29T15:35:35.362Z,38.33
2017-08-29T15:38:03.068Z,38.40
2017-08-29T15:40:30.521Z,38.34
2017-08-29T15:42:58.007Z,38.46
2017-08-29T15:45:25.492Z,38.36
2017-08-29T15:47:53.187Z,37.86
2017-08-29T15:50:20.718Z,37.63
2017-08-29T15:52:48.204Z,37.86
2017-08-29T15:55:15.690Z,37.71
2017-08-29T15:57:43.154Z,37.57
2017-08-29T16:00:10.679Z,37.33
2017-08-29T16:02:38.147Z,37.42
2017-08-29T16:05:05.641Z,37.53
2017-08-29T16:07:33.161Z,37.51
2017-08-29T16:10:00.643Z,37.43
2017-08-29T16:12:28.129Z,37.59
2017-08-29T16:14:57.712Z,37.64
2017-08-29T16:17:25.186Z,37.35
2017-08-29T16:19:52.779Z,37.17
2017-08-29T16:22:20.283Z,37.24
2017-08-29T16:24:47.738Z,37.42
2017-08-29T16:27:15.242Z,37.24
2017-08-29T16:29:42.736Z,37.16
2017-08-29T16:32:10.259Z,37.31
2017-08-29T16:34:37.735Z,37.25
2017-08-29T16:37:05.223Z,37.16
2017-08-29T16:39:32.695Z,37.15
2017-08-29T16:42:00.216Z,37.40
2017-08-29T16:44:27.700Z,37.24
2017-08-29T16:46:55.302Z,37.05
2017-08-29T16:49:22.828Z,36.79
2017-08-29T16:51:51.351Z,36.94
2017-08-29T16:54:18.865Z,36.90
2017-08-29T16:56:46.363Z,36.79
2017-08-29T16:59:13.894Z,36.71
2017-08-29T17:01:41.374Z,36.64
2017-08-29T17:04:08.861Z,36.56
2017-08-29T17:06:36.359Z,36.56
2017-08-29T17:09:05.997Z,36.26
2017-08-29T17:11:33.459Z,36.11
2017-08-29T17:14:13.207Z,35.96
2017-08-29T17:16:40.703Z,35.76
2017-08-29T17:19:08.208Z,35.63
2017-08-29T17:21:35.702Z,35.26
2017-08-29T17:24:03.208Z,35.05
2017-08-29T17:26:31.028Z,34.69
2017-08-29T17:28:58.510Z,34.64
2017-08-29T17:31:26.060Z,34.43
2017-08-29T17:33:53.608Z,34.29
2017-08-29T17:36:21.127Z,34.15
2017-08-29T17:38:48.623Z,34.03
2017-08-29T17:41:17.353Z,33.80
2017-08-29T17:43:44.866Z,33.60
2017-08-29T17:46:12.365Z,33.48
2017-08-29T17:48:39.873Z,33.28
2017-08-29T17:51:07.341Z,33.09
2017-08-29T17:53:34.900Z,33.05
2017-08-29T17:56:02.394Z,32.85
2017-08-29T17:58:29.898Z,32.81
2017-08-29T18:00:57.424Z,32.69
2017-08-29T18:03:24.914Z,32.66
2017-08-29T18:05:52.388Z,32.59
2017-08-29T18:08:19.878Z,32.45
2017-08-29T18:10:47.375Z,32.23
2017-08-29T18:13:14.855Z,32.11
2017-08-29T18:15:42.378Z,32.01
2017-08-29T18:18:09.879Z,32.09
2017-08-29T18:20:41.089Z,32.04
2017-08-29T18:23:08.606Z,31.87
2017-08-29T18:25:36.133Z,31.85
2017-08-29T18:28:03.667Z,31.69
2017-08-29T18:30:31.182Z,31.48
2017-08-29T18:32:58.669Z,31.61
2017-08-29T18:35:26.153Z,31.92
2017-08-29T18:37:53.641Z,32.01
2017-08-29T18:40:21.132Z,31.99
2017-08-29T18:42:48.644Z,31.90
2017-08-29T18:45:16.162Z,31.81
2017-08-29T18:47:43.650Z,31.78
2017-08-29T18:50:11.171Z,31.73
2017-08-29T18:52:38.694Z,31.61
2017-08-29T18:55:06.237Z,31.44
2017-08-29T18:57:33.730Z,31.31
2017-08-29T19:00:01.247Z,31.28
2017-08-29T19:02:28.734Z,31.28
2017-08-29T19:04:56.293Z,31.21
2017-08-29T19:07:23.812Z,31.09
2017-08-29T19:09:51.682Z,31.01
2017-08-29T19:12:19.182Z,30.89
2017-08-29T19:14:46.719Z,30.72
2017-08-29T19:17:14.263Z,30.68
2017-08-29T19:19:41.775Z,30.28
2017-08-29T19:22:09.295Z,30.55
2017-08-29T19:24:36.804Z,30.57
2017-08-29T19:27:04.317Z,30.52
2017-08-29T19:29:31.836Z,30.43
2017-08-29T19:31:59.374Z,30.36
2017-08-29T19:34:26.891Z,30.38
2017-08-29T19:36:54.458Z,30.35
2017-08-29T19:39:21.997Z,30.34
2017-08-29T19:41:49.503Z,30.36
2017-08-29T19:44:17.027Z,30.03
2017-08-29T19:46:44.559Z,30.19
2017-08-29T19:49:12.115Z,29.92
2017-08-29T19:51:39.638Z,29.43
2017-08-29T19:54:07.213Z,28.83
2017-08-29T19:56:34.795Z,28.48
2017-08-29T19:59:02.322Z,28.25
2017-08-29T20:01:29.827Z,28.06
2017-08-29T20:03:57.329Z,27.95
2017-08-29T20:06:24.888Z,27.81
2017-08-29T20:08:52.421Z,27.60
2017-08-29T20:11:19.978Z,27.70
2017-08-29T20:13:48.396Z,27.63
2017-08-29T20:16:15.936Z,27.47
2017-08-29T20:18:43.412Z,27.34
2017-08-29T20:21:10.906Z,27.04
2017-08-29T20:23:38.413Z,27.09
2017-08-29T20:26:05.946Z,27.01
2017-08-29T20:28:33.475Z,27.05
2017-08-29T20:31:01.002Z,26.89
2017-08-29T20:33:28.497Z,26.88
2017-08-29T20:35:56.007Z,26.69
2017-08-29T20:38:23.506Z,26.62
2017-08-29T20:40:51.012Z,26.70
2017-08-29T20:43:18.530Z,26.66
2017-08-29T20:45:45.996Z,26.75
2017-08-29T20:48:13.493Z,26.71
2017-08-29T20:50:40.967Z,26.60
2017-08-29T20:53:08.476Z,26.53
2017-08-29T20:55:35.963Z,26.35
2017-08-29T20:58:03.461Z,26.26
2017-08-29T21:00:30.935Z,26.29
2017-08-29T21:02:58.438Z,26.32
2017-08-29T21:05:25.926Z,26.22
2017-08-29T21:07:54.040Z,26.11
2017-08-29T21:10:21.535Z,26.22
2017-08-29T21:12:49.040Z,26.21
2017-08-29T21:15:16.561Z,26.00
2017-08-29T21:17:44.046Z,25.69
2017-08-29T21:20:11.552Z,25.76
2017-08-29T21:22:39.078Z,25.81
2017-08-29T21:25:06.570Z,25.73
2017-08-29T21:27:34.067Z,25.71
2017-08-29T21:30:01.586Z,25.71
2017-08-29T21:32:29.079Z,25.59
2017-08-29T21:34:56.595Z,25.48
2017-08-29T21:37:24.150Z,25.54
2017-08-29T21:39:51.638Z,25.53
2017-08-29T21:42:19.131Z,25.46
2017-08-29T21:44:46.640Z,25.49
2017-08-29T21:47:14.155Z,25.34
2017-08-29T21:49:41.629Z,25.46
2017-08-29T21:52:09.148Z,25.41
2017-08-29T21:54:36.629Z,25.21
2017-08-29T21:57:04.302Z,25.07
2017-08-29T21:59:31.756Z,25.01
2017-08-29T22:01:59.287Z,25.01
2017-08-29T22:04:26.767Z,25.07
2017-08-29T22:06:54.259Z,24.94
2017-08-29T22:09:21.792Z,24.94
2017-08-29T22:11:49.270Z,24.82
2017-08-29T22:14:16.774Z,24.81
2017-08-29T22:16:44.238Z,24.62
2017-08-29T22:19:11.761Z,24.47
2017-08-29T22:21:39.255Z,24.48
2017-08-29T22:24:06.753Z,24.50
2017-08-29T22:26:34.210Z,24.47
2017-08-29T22:29:01.716Z,24.47
2017-08-29T22:31:29.201Z,24.41
2017-08-29T22:33:56.710Z,24.45
2017-08-29T22:36:24.285Z,24.39
2017-08-29T22:38:51.811Z,24.42
2017-08-29T22:41:19.272Z,24.40
2017-08-29T22:43:46.782Z,24.35
2017-08-29T22:46:14.252Z,24.23
2017-08-29T22:48:41.720Z,24.15
2017-08-29T22:51:09.225Z,24.19
2017-08-29T22:53:36.737Z,24.16
2017-08-29T22:56:04.380Z,24.01
2017-08-29T22:58:31.867Z,24.00
2017-08-29T23:00:59.325Z,24.03
2017-08-29T23:03:26.838Z,23.99
2017-08-29T23:05:54.308Z,23.88
2017-08-29T23:08:21.814Z,23.90
2017-08-29T23:10:49.303Z,23.99
2017-08-29T23:13:16.799Z,24.03
2017-08-29T23:15:44.298Z,23.79
2017-08-29T23:18:11.787Z,23.73
2017-08-29T23:20:39.281Z,23.80
2017-08-29T23:23:06.745Z,23.63
2017-08-29T23:25:34.235Z,23.56
2017-08-29T23:28:01.755Z,23.67
2017-08-29T23:30:29.214Z,23.52
2017-08-29T23:32:56.709Z,23.46
2017-08-29T23:35:24.174Z,23.35
2017-08-29T23:37:51.761Z,23.18
2017-08-29T23:40:19.225Z,23.22
2017-08-29T23:42:46.689Z,23.14
2017-08-29T23:45:14.189Z,23.13
2017-08-29T23:47:41.668Z,23.10
2017-08-29T23:50:09.160Z,23.11
2017-08-29T23:52:36.630Z,23.18
2017-08-29T23:55:04.905Z,23.11
2017-08-29T23:57:32.380Z,23.08
2017-08-29T23:59:59.868Z,22.99
